Terminal Aerodrome Forecast
Issued by NWS Charleston, WV

Current Version | Previous Version | Graphics & Text | Print | Product List | Glossary On
Versions: 1 2 3 4 5 6 7 8 9 10 11 12 13 14 15 16 17 18 19 20 21 22 23 24
756
FTUS41 KRLX 191205 AAA
TAFBKW
TAF AMD
KBKW 191205Z 1912/2012 28005KT P6SM OVC005
      TEMPO 1912/1914 BKN003
     FM191700 30006KT P6SM BKN015
     FM192100 30007KT P6SM SCT020
     FM200800 VRB03KT 5SM BR FEW020=

USA.gov is the U.S. government's official web portal to all federal, state and local government web resources and services.